Low Moor, Virginia
Current Conditions -  °F | °C
As of 2:55 AM on Sunday 26 Oct 2014 (Local Time) from KHSP Reporting Station
Overcast Overcast  
Wind Chill: 55°   Ceiling: 2800
Heat Index: 55°   Visibility: 10mi
Dew Point: 44°   Wind: 17mph
Humidity: 67%   Direction: 300°WNW
Pressure: 29.82"   Gusts: 26mph
Location:  37.79°N, 79.88°W
Report Text: KHSP 260655Z AUTO 30015G23KT 10SM BKN028 OVC035 13/07 A2982 RMK AO2 T01250065
Loading
Personal Weather Stations






























Interactive Weather Map
Tropical Storm Tracking
New forecast layout! Learn more

10-Day Weather Forecast

Advertisements
Track Severe Weather on mobile